KSYI/SYI METAR and TAF weather

Enter ICAO airport designator
Station Type Date Time Source
KSYI METAR 2021/09/20 04:55 UTC NOAA

KSYI 200455Z AUTO 11003KT 10SM BKN070 OVC080 21/21 A3004 RMK A01 P0004


Station Type Date Time Source
KSYI Decoded METAR 2021/09/20 04:55 UTC NOAA

Station name not available
Sep 20, 2021 - 12:55 AM EDT / 2021.09.20 0455 UTC
Wind: from the ESE (110 degrees) at 3 MPH (3 KT):0
Visibility: 10 mile(s):0
Sky conditions: overcast
Precipitation last hour: 0.04 inches
Temperature: 69 F (21 C)
Dew Point: 69 F (21 C)
Relative Humidity: 100%
Pressure (altimeter): 30.04 in. Hg (1017 hPa)
ob: KSYI 200455Z AUTO 11003KT 10SM BKN070 OVC080 21/21 A3004 RMK A01 P0004
cycle: 5

Station Type Date Time Source
KSYI TAF UTC NOAA

Error!

Example: see airport list